createdAt,value
2022-12-02T00:02:27.237Z,-1.86
2022-12-02T00:05:11.852Z,-1.90
2022-12-02T00:07:38.689Z,-1.89
2022-12-02T00:10:25.436Z,-1.90
2022-12-02T00:12:52.471Z,-1.85
2022-12-02T00:15:42.510Z,-1.91
2022-12-02T00:18:11.692Z,-1.90
2022-12-02T00:20:39.671Z,-1.91
2022-12-02T00:23:07.360Z,-1.90
2022-12-02T00:25:35.056Z,-1.92
2022-12-02T00:28:02.317Z,-1.95
2022-12-02T00:30:29.513Z,-1.98
2022-12-02T00:32:56.675Z,-1.98
2022-12-02T00:35:24.732Z,-1.96
2022-12-02T00:37:52.186Z,-1.98
2022-12-02T00:40:19.792Z,-1.97
2022-12-02T00:42:46.790Z,-1.98
2022-12-02T00:45:33.462Z,-1.96
2022-12-02T00:48:00.802Z,-1.99
2022-12-02T00:50:28.457Z,-1.98
2022-12-02T00:52:55.333Z,-2.00
2022-12-02T00:55:22.769Z,-2.01
2022-12-02T00:57:49.805Z,-2.01
2022-12-02T01:00:17.369Z,-2.03
2022-12-02T01:02:44.284Z,-2.01
2022-12-02T01:05:11.554Z,-2.03
2022-12-02T01:07:38.457Z,-2.04
2022-12-02T01:10:06.632Z,-2.03
2022-12-02T01:12:33.879Z,-2.02
2022-12-02T01:15:00.965Z,-2.01
2022-12-02T01:17:27.788Z,-2.01
2022-12-02T01:19:54.839Z,-2.03
2022-12-02T01:22:21.809Z,-2.03
2022-12-02T01:24:49.239Z,-2.04
2022-12-02T01:27:16.318Z,-2.02
2022-12-02T01:29:43.409Z,-2.04
2022-12-02T01:32:10.292Z,-2.03
2022-12-02T01:34:37.399Z,-2.05
2022-12-02T01:37:04.282Z,-2.06
2022-12-02T01:39:31.413Z,-2.09
2022-12-02T01:41:58.245Z,-2.12
2022-12-02T01:44:25.661Z,-2.12
2022-12-02T01:46:52.790Z,-2.15
2022-12-02T01:49:20.353Z,-2.14
2022-12-02T01:51:47.404Z,-2.17
2022-12-02T01:54:14.697Z,-2.17
2022-12-02T01:56:41.833Z,-2.19
2022-12-02T01:59:12.430Z,-2.19
2022-12-02T02:01:40.089Z,-2.19
2022-12-02T02:04:08.292Z,-2.19
2022-12-02T02:06:38.246Z,-2.19
2022-12-02T02:09:07.620Z,-2.17
2022-12-02T02:11:36.123Z,-2.19
2022-12-02T02:14:09.051Z,-2.17
2022-12-02T02:16:37.297Z,-2.18
2022-12-02T02:19:05.582Z,-2.22
2022-12-02T02:21:39.362Z,-2.22
2022-12-02T02:24:06.737Z,-2.26
2022-12-02T02:26:33.640Z,-2.24
2022-12-02T02:29:00.762Z,-2.26
2022-12-02T02:31:27.595Z,-2.22
2022-12-02T02:33:54.824Z,-2.23
2022-12-02T02:36:22.013Z,-2.23
2022-12-02T02:38:49.530Z,-2.25
2022-12-02T02:41:16.423Z,-2.25
2022-12-02T02:43:43.573Z,-2.27
2022-12-02T02:46:11.197Z,-2.26
2022-12-02T02:48:39.280Z,-2.28
2022-12-02T02:51:07.322Z,-2.28
2022-12-02T02:53:34.535Z,-2.27
2022-12-02T02:56:01.361Z,-2.28
2022-12-02T02:58:29.191Z,-2.27
2022-12-02T03:01:21.260Z,-2.28
2022-12-02T03:03:53.707Z,-2.30
2022-12-02T03:06:21.460Z,-2.32
2022-12-02T03:08:49.690Z,-2.35
2022-12-02T03:11:16.820Z,-2.35
2022-12-02T03:13:46.864Z,-2.37
2022-12-02T03:16:16.658Z,-2.39
2022-12-02T03:18:45.595Z,-2.37
2022-12-02T03:21:15.092Z,-2.37
2022-12-02T03:23:42.987Z,-2.41
2022-12-02T03:26:10.210Z,-2.41
2022-12-02T03:28:37.408Z,-2.41
2022-12-02T03:31:04.892Z,-2.42
2022-12-02T03:33:33.234Z,-2.44
2022-12-02T03:36:00.099Z,-2.43
2022-12-02T03:38:29.084Z,-2.43
2022-12-02T03:40:55.996Z,-2.46
2022-12-02T03:43:23.118Z,-2.47
2022-12-02T03:45:50.157Z,-2.49
2022-12-02T03:48:22.036Z,-2.47
2022-12-02T03:50:50.979Z,-2.53
2022-12-02T03:53:18.159Z,-2.53
2022-12-02T03:55:45.149Z,-2.52
2022-12-02T03:58:12.320Z,-2.57
2022-12-02T04:00:39.187Z,-2.57
2022-12-02T04:03:06.909Z,-2.56
2022-12-02T04:05:33.977Z,-2.55
2022-12-02T04:08:01.130Z,-2.53
2022-12-02T04:10:28.067Z,-2.54
2022-12-02T04:12:55.288Z,-2.55
2022-12-02T04:15:22.257Z,-2.55
2022-12-02T04:17:49.393Z,-2.53
2022-12-02T04:20:16.278Z,-2.54
2022-12-02T04:22:43.361Z,-2.56
2022-12-02T04:25:10.157Z,-2.58
2022-12-02T04:27:37.188Z,-2.59
2022-12-02T04:30:05.087Z,-2.58
2022-12-02T04:32:32.123Z,-2.61
2022-12-02T04:34:58.907Z,-2.62
2022-12-02T04:37:26.006Z,-2.66
2022-12-02T04:39:52.840Z,-2.66
2022-12-02T04:42:19.996Z,-2.66
2022-12-02T04:44:46.799Z,-2.64
2022-12-02T04:47:13.912Z,-2.63
2022-12-02T04:49:40.692Z,-2.61
2022-12-02T04:52:07.896Z,-2.62
2022-12-02T04:54:34.719Z,-2.64
2022-12-02T04:57:01.764Z,-2.65
2022-12-02T04:59:28.496Z,-2.68
2022-12-02T05:01:55.540Z,-2.68
2022-12-02T05:04:22.514Z,-2.71
2022-12-02T05:06:49.660Z,-2.70
2022-12-02T05:09:16.499Z,-2.70
2022-12-02T05:11:43.642Z,-2.74
2022-12-02T05:14:10.704Z,-2.74
2022-12-02T05:16:37.784Z,-2.73
2022-12-02T05:19:04.728Z,-2.76
2022-12-02T05:21:31.818Z,-2.74
2022-12-02T05:23:58.609Z,-2.75
2022-12-02T05:26:25.688Z,-2.77
2022-12-02T05:28:52.472Z,-2.78
2022-12-02T05:31:19.606Z,-2.76
2022-12-02T05:33:46.418Z,-2.76
2022-12-02T05:36:13.461Z,-2.78
2022-12-02T05:38:40.316Z,-2.77
2022-12-02T05:41:07.856Z,-2.79
2022-12-02T05:43:42.778Z,-2.81
2022-12-02T05:46:18.003Z,-2.81
2022-12-02T05:48:46.639Z,-2.81
2022-12-02T05:51:15.913Z,-2.81
2022-12-02T05:53:43.516Z,-2.83
2022-12-02T05:56:14.218Z,-2.82
2022-12-02T05:58:41.269Z,-2.82
2022-12-02T06:01:36.891Z,-2.81
2022-12-02T06:04:05.001Z,-2.81
2022-12-02T06:06:36.189Z,-2.81
2022-12-02T06:09:03.157Z,-2.79
2022-12-02T06:11:34.604Z,-2.81
2022-12-02T06:14:06.789Z,-2.79
2022-12-02T06:16:35.166Z,-2.78
2022-12-02T06:19:08.595Z,-2.79
2022-12-02T06:21:35.715Z,-2.79
2022-12-02T06:24:02.555Z,-2.79
2022-12-02T06:26:29.709Z,-2.80
2022-12-02T06:29:03.245Z,-2.79
2022-12-02T06:31:37.954Z,-2.78
2022-12-02T06:34:32.167Z,-2.75
2022-12-02T06:37:09.512Z,-2.75
2022-12-02T06:39:52.566Z,-2.73
2022-12-02T06:42:32.745Z,-2.74
2022-12-02T06:45:27.386Z,-2.73
2022-12-02T06:48:14.317Z,-2.72
2022-12-02T06:50:43.405Z,-2.74
2022-12-02T06:53:26.046Z,-2.73
2022-12-02T06:55:58.623Z,-2.72
2022-12-02T06:58:25.670Z,-2.72
2022-12-02T07:00:52.885Z,-2.72
2022-12-02T07:03:30.758Z,-2.67
2022-12-02T07:06:14.315Z,-2.66
2022-12-02T07:08:41.576Z,-2.67
2022-12-02T07:11:48.938Z,-2.65
2022-12-02T07:14:32.784Z,-2.64
2022-12-02T07:17:06.569Z,-2.63
2022-12-02T07:19:40.252Z,-2.59
2022-12-02T07:22:21.797Z,-2.61
2022-12-02T07:24:56.033Z,-2.62
2022-12-02T07:27:29.156Z,-2.62
2022-12-02T07:29:57.132Z,-2.64
2022-12-02T07:32:24.030Z,-2.58
2022-12-02T07:34:51.370Z,-2.57
2022-12-02T07:37:18.747Z,-2.59
2022-12-02T07:39:45.993Z,-2.60
2022-12-02T07:42:14.480Z,-2.58
2022-12-02T07:44:41.606Z,-2.58
2022-12-02T07:47:08.614Z,-2.53
2022-12-02T07:49:35.809Z,-2.51
2022-12-02T07:52:02.659Z,-2.48
2022-12-02T07:54:29.745Z,-2.44
2022-12-02T07:56:56.600Z,-2.46
2022-12-02T07:59:24.100Z,-2.43
2022-12-02T08:01:50.901Z,-2.41
2022-12-02T08:04:18.123Z,-2.40
2022-12-02T08:06:45.016Z,-2.36
2022-12-02T08:09:12.034Z,-2.34
2022-12-02T08:11:39.341Z,-2.32
2022-12-02T08:14:06.826Z,-2.30
2022-12-02T08:16:33.758Z,-2.27
2022-12-02T08:19:01.400Z,-2.25
2022-12-02T08:21:29.136Z,-2.23
2022-12-02T08:23:56.210Z,-2.21
2022-12-02T08:26:23.001Z,-2.19
2022-12-02T08:28:53.967Z,-2.19
2022-12-02T08:31:21.243Z,-2.19
2022-12-02T08:33:49.456Z,-2.17
2022-12-02T08:36:16.385Z,-2.17
2022-12-02T08:38:43.788Z,-2.16
2022-12-02T08:41:14.016Z,-2.14
2022-12-02T08:43:41.988Z,-2.10
2022-12-02T08:46:09.675Z,-2.11
2022-12-02T08:48:37.090Z,-2.09
2022-12-02T08:51:04.470Z,-2.10
2022-12-02T08:53:31.704Z,-2.10
2022-12-02T08:55:58.549Z,-2.09
2022-12-02T08:58:25.650Z,-2.06
2022-12-02T09:00:52.504Z,-2.05
2022-12-02T09:03:19.737Z,-2.05
2022-12-02T09:05:46.624Z,-2.02
2022-12-02T09:08:13.746Z,-1.99
2022-12-02T09:10:40.695Z,-1.99
2022-12-02T09:13:07.819Z,-1.98
2022-12-02T09:15:34.632Z,-1.96
2022-12-02T09:18:01.842Z,-1.95
2022-12-02T09:20:28.686Z,-1.91
2022-12-02T09:22:56.481Z,-1.88
2022-12-02T09:25:23.341Z,-1.87
2022-12-02T09:27:50.717Z,-1.86
2022-12-02T09:30:17.535Z,-1.89
2022-12-02T09:32:44.728Z,-1.87
2022-12-02T09:35:11.741Z,-1.89
2022-12-02T09:37:38.888Z,-1.86
2022-12-02T09:40:06.564Z,-1.85
2022-12-02T09:42:33.860Z,-1.88
2022-12-02T09:45:01.685Z,-1.90
2022-12-02T09:47:29.714Z,-1.87
2022-12-02T09:49:57.089Z,-1.79
2022-12-02T09:52:26.787Z,-1.72
2022-12-02T09:54:58.139Z,-1.65
2022-12-02T09:57:35.476Z,-1.59
2022-12-02T10:00:14.272Z,-1.57
2022-12-02T10:02:44.942Z,-1.57
2022-12-02T10:05:24.699Z,-1.53
2022-12-02T10:07:55.240Z,-1.50
2022-12-02T10:10:25.679Z,-1.52
2022-12-02T10:12:54.203Z,-1.54
2022-12-02T10:15:24.905Z,-1.53
2022-12-02T10:17:53.673Z,-1.54
2022-12-02T10:20:24.232Z,-1.54
2022-12-02T10:23:17.016Z,-1.58
2022-12-02T10:25:49.808Z,-1.58
2022-12-02T10:28:29.326Z,-1.55
2022-12-02T10:31:05.226Z,-1.48
2022-12-02T10:33:36.015Z,-1.44
2022-12-02T10:36:03.169Z,-1.44
2022-12-02T10:38:40.470Z,-1.49
2022-12-02T10:41:16.357Z,-1.49
2022-12-02T10:44:06.100Z,-1.42
2022-12-02T10:46:33.496Z,-1.39
2022-12-02T10:49:19.488Z,-1.36
2022-12-02T10:51:46.364Z,-1.30
2022-12-02T10:54:28.819Z,-1.28
2022-12-02T10:57:01.236Z,-1.29
2022-12-02T10:59:31.248Z,-1.33
2022-12-02T11:01:59.457Z,-1.36
2022-12-02T11:04:28.903Z,-1.32
2022-12-02T11:06:55.757Z,-1.32
2022-12-02T11:09:40.054Z,-1.35
2022-12-02T11:12:30.396Z,-1.39
2022-12-02T11:14:57.624Z,-1.45
2022-12-02T11:17:46.170Z,-1.44
2022-12-02T11:20:41.464Z,-1.44
2022-12-02T11:23:26.929Z,-1.43
2022-12-02T11:25:56.600Z,-1.43
2022-12-02T11:28:29.426Z,-1.37
2022-12-02T11:31:12.237Z,-1.30
2022-12-02T11:33:53.137Z,-1.25
2022-12-02T11:36:23.410Z,-1.22
2022-12-02T11:38:52.916Z,-1.21
2022-12-02T11:41:25.847Z,-1.24
2022-12-02T11:44:07.691Z,-1.28
2022-12-02T11:46:46.874Z,-1.29
2022-12-02T11:49:40.410Z,-1.27
2022-12-02T11:52:10.138Z,-1.26
2022-12-02T11:54:39.772Z,-1.21
2022-12-02T11:57:07.753Z,-1.18
2022-12-02T11:59:36.626Z,-1.14
2022-12-02T12:02:11.746Z,-1.11
2022-12-02T12:04:38.932Z,-1.10
2022-12-02T12:07:06.315Z,-1.12
2022-12-02T12:09:33.501Z,-1.12
2022-12-02T12:12:18.998Z,-1.08
2022-12-02T12:14:54.856Z,-1.08
2022-12-02T12:17:40.376Z,-1.13
2022-12-02T12:20:16.308Z,-1.17
2022-12-02T12:22:43.437Z,-1.18
2022-12-02T12:25:34.896Z,-1.24
2022-12-02T12:28:01.981Z,-1.25
2022-12-02T12:30:28.833Z,-1.26
2022-12-02T12:32:55.959Z,-1.22
2022-12-02T12:35:22.757Z,-1.18
2022-12-02T12:37:49.837Z,-1.13
2022-12-02T12:40:16.765Z,-1.11
2022-12-02T12:42:43.784Z,-1.10
2022-12-02T12:45:10.877Z,-1.10
2022-12-02T12:47:37.947Z,-1.09
2022-12-02T12:50:05.606Z,-1.13
2022-12-02T12:52:32.714Z,-1.13
2022-12-02T12:54:59.646Z,-1.15
2022-12-02T12:57:26.718Z,-1.12
2022-12-02T12:59:53.986Z,-1.10
2022-12-02T13:02:21.267Z,-1.09
2022-12-02T13:04:48.104Z,-1.07
2022-12-02T13:07:15.325Z,-1.10
2022-12-02T13:09:42.138Z,-1.08
2022-12-02T13:12:12.918Z,-1.11
2022-12-02T13:14:41.252Z,-1.12
2022-12-02T13:17:08.793Z,-1.12
2022-12-02T13:19:35.692Z,-1.11
2022-12-02T13:22:02.769Z,-1.08
2022-12-02T13:24:29.666Z,-1.07
2022-12-02T13:26:56.793Z,-1.06
2022-12-02T13:29:23.730Z,-1.05
2022-12-02T13:31:50.904Z,-1.03
2022-12-02T13:34:17.705Z,-1.01
2022-12-02T13:36:44.724Z,-1.02
2022-12-02T13:39:11.773Z,-1.00
2022-12-02T13:41:39.359Z,-0.97
2022-12-02T13:44:06.264Z,-0.96
2022-12-02T13:46:33.553Z,-0.95
2022-12-02T13:49:00.488Z,-0.96
2022-12-02T13:51:27.604Z,-0.97
2022-12-02T13:53:58.735Z,-0.95
2022-12-02T13:56:27.076Z,-0.94
2022-12-02T13:58:53.948Z,-0.91
2022-12-02T14:01:21.174Z,-0.95
2022-12-02T14:03:48.387Z,-0.98
2022-12-02T14:06:15.694Z,-0.97
2022-12-02T14:08:42.600Z,-0.97
2022-12-02T14:11:09.720Z,-0.96
2022-12-02T14:13:36.468Z,-0.96
2022-12-02T14:16:03.623Z,-0.97
2022-12-02T14:18:30.515Z,-0.93
2022-12-02T14:20:57.628Z,-0.94
2022-12-02T14:23:24.451Z,-0.94
2022-12-02T14:25:51.540Z,-0.93
2022-12-02T14:28:18.352Z,-0.92
2022-12-02T14:30:45.639Z,-0.91
2022-12-02T14:33:12.738Z,-0.93
2022-12-02T14:35:39.891Z,-0.93
2022-12-02T14:38:06.675Z,-0.93
2022-12-02T14:40:34.792Z,-0.93
2022-12-02T14:43:01.760Z,-0.92
2022-12-02T14:45:28.848Z,-0.91
2022-12-02T14:47:55.613Z,-0.94
2022-12-02T14:50:27.679Z,-0.94
2022-12-02T14:52:54.588Z,-0.93
2022-12-02T14:55:21.935Z,-0.93
2022-12-02T14:57:48.874Z,-0.94
2022-12-02T15:00:16.549Z,-0.98
2022-12-02T15:02:43.423Z,-0.99
2022-12-02T15:05:15.767Z,-0.97
2022-12-02T15:07:42.727Z,-0.95
2022-12-02T15:10:11.225Z,-0.97
2022-12-02T15:12:38.113Z,-0.97
2022-12-02T15:15:36.036Z,-0.98
2022-12-02T15:17:53.507Z,-0.99
2022-12-02T15:20:23.799Z,-0.99
2022-12-02T15:22:51.001Z,-0.99
2022-12-02T15:25:18.201Z,-1.00
2022-12-02T15:27:45.013Z,-1.00
2022-12-02T15:30:12.796Z,-1.02
2022-12-02T15:32:40.202Z,-1.02
2022-12-02T15:35:09.215Z,-0.99
2022-12-02T15:37:36.063Z,-0.99
2022-12-02T15:40:03.938Z,-0.97
2022-12-02T15:42:30.682Z,-0.94
2022-12-02T15:44:57.796Z,-0.94
2022-12-02T15:47:24.696Z,-0.94
2022-12-02T15:49:51.772Z,-0.95
2022-12-02T15:52:18.644Z,-0.96
2022-12-02T15:54:45.801Z,-0.94
2022-12-02T15:57:12.571Z,-0.91
2022-12-02T15:59:39.710Z,-0.89
2022-12-02T16:02:07.000Z,-0.89
2022-12-02T16:04:34.208Z,-0.89
2022-12-02T16:07:00.948Z,-0.89
2022-12-02T16:09:28.166Z,-0.88
2022-12-02T16:11:55.072Z,-0.88
2022-12-02T16:14:22.193Z,-0.88
2022-12-02T16:16:49.056Z,-0.86
2022-12-02T16:19:16.238Z,-0.84
2022-12-02T16:21:43.386Z,-0.82
2022-12-02T16:24:10.597Z,-0.80
2022-12-02T16:26:37.365Z,-0.79
2022-12-02T16:29:04.427Z,-0.78
2022-12-02T16:31:31.274Z,-0.81
2022-12-02T16:33:58.369Z,-0.82
2022-12-02T16:36:25.282Z,-0.80
2022-12-02T16:38:52.337Z,-0.80
2022-12-02T16:41:19.240Z,-0.81
2022-12-02T16:43:46.387Z,-0.81
2022-12-02T16:46:13.273Z,-0.81
2022-12-02T16:48:40.683Z,-0.81
2022-12-02T16:51:07.508Z,-0.79
2022-12-02T16:53:34.561Z,-0.80
2022-12-02T16:56:01.383Z,-0.82
2022-12-02T16:58:28.487Z,-0.83
2022-12-02T17:00:55.327Z,-0.83
2022-12-02T17:03:22.485Z,-0.80
2022-12-02T17:05:49.296Z,-0.80
2022-12-02T17:08:16.423Z,-0.81
2022-12-02T17:10:43.334Z,-0.79
2022-12-02T17:13:10.368Z,-0.79
2022-12-02T17:15:37.168Z,-0.80
2022-12-02T17:18:04.613Z,-0.78
2022-12-02T17:20:31.413Z,-0.76
2022-12-02T17:22:58.461Z,-0.78
2022-12-02T17:25:25.288Z,-0.78
2022-12-02T17:27:52.394Z,-0.78
2022-12-02T17:30:19.268Z,-0.78
2022-12-02T17:32:48.551Z,-0.80
2022-12-02T17:35:18.717Z,-0.82
2022-12-02T17:37:45.805Z,-0.84
2022-12-02T17:40:13.272Z,-0.84
2022-12-02T17:42:40.387Z,-0.82
2022-12-02T17:45:07.604Z,-0.82
2022-12-02T17:47:34.770Z,-0.81
2022-12-02T17:50:01.709Z,-0.81
2022-12-02T17:52:28.890Z,-0.81
2022-12-02T17:54:56.148Z,-0.82
2022-12-02T17:57:23.323Z,-0.87
2022-12-02T17:59:50.710Z,-0.87
2022-12-02T18:02:18.326Z,-0.86
2022-12-02T18:04:45.740Z,-0.88
2022-12-02T18:07:13.265Z,-0.87
2022-12-02T18:09:40.907Z,-0.86
2022-12-02T18:12:09.316Z,-0.85
2022-12-02T18:14:36.350Z,-0.84
2022-12-02T18:17:03.686Z,-0.84
2022-12-02T18:19:30.517Z,-0.85
2022-12-02T18:21:57.973Z,-0.84
2022-12-02T18:24:25.086Z,-0.86
2022-12-02T18:26:52.131Z,-0.86
2022-12-02T18:29:19.000Z,-0.85
2022-12-02T18:31:47.225Z,-0.86
2022-12-02T18:34:14.040Z,-0.87
2022-12-02T18:36:41.101Z,-0.87
2022-12-02T18:39:07.904Z,-0.88
2022-12-02T18:41:35.023Z,-0.84
2022-12-02T18:44:01.889Z,-0.82
2022-12-02T18:46:29.081Z,-0.84
2022-12-02T18:48:55.960Z,-0.82
2022-12-02T18:51:23.063Z,-0.82
2022-12-02T18:53:49.805Z,-0.81
2022-12-02T18:56:23.586Z,-0.82
2022-12-02T18:58:51.212Z,-0.82
2022-12-02T19:01:18.406Z,-0.80
2022-12-02T19:03:45.298Z,-0.82
2022-12-02T19:06:12.368Z,-0.80
2022-12-02T19:08:39.197Z,-0.82
2022-12-02T19:11:06.285Z,-0.81
2022-12-02T19:13:33.315Z,-0.78
2022-12-02T19:16:00.454Z,-0.76
2022-12-02T19:18:27.448Z,-0.75
2022-12-02T19:20:54.570Z,-0.76
2022-12-02T19:23:21.445Z,-0.74
2022-12-02T19:25:50.589Z,-0.76
2022-12-02T19:28:17.639Z,-0.74
2022-12-02T19:30:44.817Z,-0.72
2022-12-02T19:33:11.789Z,-0.71
2022-12-02T19:35:38.889Z,-0.72
2022-12-02T19:38:10.226Z,-0.72
2022-12-02T19:40:44.611Z,-0.69
2022-12-02T19:43:15.772Z,-0.70
2022-12-02T19:45:43.304Z,-0.68
2022-12-02T19:48:10.812Z,-0.70
2022-12-02T19:50:37.979Z,-0.68
2022-12-02T19:53:04.773Z,-0.67
2022-12-02T19:55:31.862Z,-0.68
2022-12-02T19:57:58.670Z,-0.68
2022-12-02T20:00:25.916Z,-0.67
2022-12-02T20:02:52.944Z,-0.65
2022-12-02T20:05:24.403Z,-0.65
2022-12-02T20:07:51.576Z,-0.64
2022-12-02T20:10:19.304Z,-0.64
2022-12-02T20:12:46.498Z,-0.63
2022-12-02T20:15:14.937Z,-0.60
2022-12-02T20:17:42.456Z,-0.60
2022-12-02T20:20:13.273Z,-0.60
2022-12-02T20:22:40.704Z,-0.59
2022-12-02T20:25:08.645Z,-0.59
2022-12-02T20:27:35.411Z,-0.58
2022-12-02T20:30:02.558Z,-0.59
2022-12-02T20:32:29.374Z,-0.59
2022-12-02T20:34:56.500Z,-0.60
2022-12-02T20:37:23.669Z,-0.57
2022-12-02T20:39:50.754Z,-0.56
2022-12-02T20:42:17.595Z,-0.56
2022-12-02T20:44:49.372Z,-0.55
2022-12-02T20:47:19.081Z,-0.57
2022-12-02T20:49:46.176Z,-0.55
2022-12-02T20:52:12.993Z,-0.55
2022-12-02T20:54:40.068Z,-0.56
2022-12-02T20:57:07.917Z,-0.55
2022-12-02T20:59:35.008Z,-0.56
2022-12-02T21:02:01.853Z,-0.57
2022-12-02T21:04:29.535Z,-0.54
2022-12-02T21:06:56.328Z,-0.52
2022-12-02T21:09:23.506Z,-0.54
2022-12-02T21:11:50.325Z,-0.51
2022-12-02T21:14:17.408Z,-0.52
2022-12-02T21:16:44.379Z,-0.49
2022-12-02T21:19:12.591Z,-0.48
2022-12-02T21:21:39.489Z,-0.47
2022-12-02T21:24:06.818Z,-0.46
2022-12-02T21:26:33.600Z,-0.46
2022-12-02T21:29:00.706Z,-0.44
2022-12-02T21:31:27.577Z,-0.44
2022-12-02T21:33:54.803Z,-0.44
2022-12-02T21:36:21.796Z,-0.44
2022-12-02T21:38:48.876Z,-0.45
2022-12-02T21:41:15.641Z,-0.43
2022-12-02T21:43:42.736Z,-0.41
2022-12-02T21:46:09.533Z,-0.43
2022-12-02T21:48:40.586Z,-0.37
2022-12-02T21:51:10.672Z,-0.38
2022-12-02T21:53:37.744Z,-0.40
2022-12-02T21:56:05.180Z,-0.41
2022-12-02T21:58:32.311Z,-0.38
2022-12-02T22:01:17.868Z,-0.38
2022-12-02T22:03:45.165Z,-0.36
2022-12-02T22:06:11.935Z,-0.39
2022-12-02T22:08:39.258Z,-0.38
2022-12-02T22:11:06.070Z,-0.35
2022-12-02T22:13:33.169Z,-0.34
2022-12-02T22:15:59.988Z,-0.34
2022-12-02T22:18:27.072Z,-0.33
2022-12-02T22:20:53.820Z,-0.33
2022-12-02T22:23:20.957Z,-0.32
2022-12-02T22:25:47.852Z,-0.30
2022-12-02T22:28:14.910Z,-0.28
2022-12-02T22:30:41.726Z,-0.28
2022-12-02T22:33:08.781Z,-0.27
2022-12-02T22:35:35.552Z,-0.28
2022-12-02T22:38:02.735Z,-0.29
2022-12-02T22:40:29.513Z,-0.30
2022-12-02T22:42:56.823Z,-0.27
2022-12-02T22:45:23.615Z,-0.26
2022-12-02T22:47:50.713Z,-0.24
2022-12-02T22:50:17.632Z,-0.26
2022-12-02T22:52:44.665Z,-0.26
2022-12-02T22:55:11.495Z,-0.27
2022-12-02T22:57:38.601Z,-0.28
2022-12-02T23:00:07.699Z,-0.24
2022-12-02T23:02:34.885Z,-0.25
2022-12-02T23:05:01.892Z,-0.26
2022-12-02T23:07:29.038Z,-0.25
2022-12-02T23:09:55.870Z,-0.26
2022-12-02T23:12:23.097Z,-0.24
2022-12-02T23:14:49.975Z,-0.23
2022-12-02T23:17:17.180Z,-0.22
2022-12-02T23:19:43.910Z,-0.21
2022-12-02T23:22:11.127Z,-0.22
2022-12-02T23:24:37.836Z,-0.22
2022-12-02T23:27:04.955Z,-0.21
2022-12-02T23:29:31.749Z,-0.18
2022-12-02T23:31:58.885Z,-0.17
2022-12-02T23:34:25.656Z,-0.16
2022-12-02T23:36:52.781Z,-0.18
2022-12-02T23:39:19.579Z,-0.19
2022-12-02T23:41:46.710Z,-0.20
2022-12-02T23:44:13.464Z,-0.20
2022-12-02T23:46:40.712Z,-0.19
2022-12-02T23:49:07.507Z,-0.18
2022-12-02T23:51:34.611Z,-0.19
2022-12-02T23:54:01.447Z,-0.19
2022-12-02T23:56:28.524Z,-0.19
2022-12-02T23:58:55.320Z,-0.20
